Otter Creek, Maine
Current Conditions -  °F | °C
As of 1:55 PM on Tuesday 27 Jan 2015 (Local Time) from KBHB Reporting Station
Overcast Overcast  
Wind Chill: -7°   Ceiling: 1300
Heat Index: 14°   Visibility: 0.5mi
Dew Point: 12°   Wind: 31mph
Humidity: 93%   Direction: 20°NNE
Pressure: 29.45"   Gusts: 45mph
Location:  44.32°N, 68.21°W
Report Text: KBHB 271855Z 02027G39KT 1/2SM OVC013 M10/M11 A2945 RMK AO1
Loading
Personal Weather Stations






























Interactive Weather Map New forecast layout! Learn more

10-Day Weather Forecast

Advertisements
Track Severe Weather on mobile